^^
Station Historical Data
Daily Summary for January 16, 2018 Units:  Metric    English   Both
« Previous Day
Next Day »
Daily Weekly Monthly Yearly Custom
  High: Low: Average:
Temperature: -17.8 °C -22.4 °C -21.4 °C
Dew Point: -17.8 °C -23.6 °C -23 °C
Humidity: Humidity% 72% 80%
Wind Speed: 0km/h 0km/h 11.4km/h
Wind Gust: 0km/h - -
Wind- - SE
Pressure: 0 hPa 33937.9 hPa -
Precipitation: 0 mm    
Historical Graphs
 
 
Tabular Data for January 16, 2018
Time Temperature Dew Point Pressure Wind Wind Speed Wind Gust Humidity Rainfall Rate (Hourly) solar Conditions
-17.8 °C -17.8 °C 0 hPa Calm     Humidity% 0 mm SoftwareType W/m2 Conditions
00:03 -21.9 °C -22.9 °C 34476.3 hPa South 2.9 km/h 10.3 km/h 87% 0 mm WeatherDisplay:10.37 W/m2 FEW
00:08 -21.9 °C -22.9 °C 34462.7 hPa West 5.5 km/h 20.9 km/h 87% 0 mm WeatherDisplay:10.37 W/m2 FEW
00:17 -21.9 °C -22.9 °C 34462.7 hPa SSE 6.3 km/h 11.9 km/h 87% 0 mm WeatherDisplay:10.37 W/m2 FEW
00:22 -21.9 °C -23 °C 34462.7 hPa South 8.2 km/h 23.8 km/h 86% 0 mm WeatherDisplay:10.37 W/m2 FEW
00:33 -21.9 °C -23 °C 34452.6 hPa SW 13.5 km/h 15 km/h 86% 0 mm WeatherDisplay:10.37 W/m2 FEW
00:40 -21.9 °C -22.9 °C 34452.6 hPa SSE 3.4 km/h 29.8 km/h 87% 0 mm WeatherDisplay:10.37 W/m2 FEW
00:45 -21.8 °C -22.9 °C 34452.6 hPa SSW 3.7 km/h 23.8 km/h 86% 0 mm WeatherDisplay:10.37 W/m2 FEW
00:58 -21.8 °C -22.9 °C 34442.4 hPa East 4.3 km/h 15 km/h 86% 0 mm WeatherDisplay:10.37 W/m2 FEW
01:07 -21.8 °C -22.9 °C 34442.4 hPa SSE 8 km/h 26.9 km/h 86% 0 mm WeatherDisplay:10.37 W/m2 FEW
01:12 -21.8 °C -22.9 °C 34442.4 hPa SSE 10.1 km/h 20.9 km/h 86% 0 mm WeatherDisplay:10.37 W/m2 FEW
01:17 -21.8 °C -22.9 °C 34442.4 hPa ESE 1 km/h 5.1 km/h 86% 0 mm WeatherDisplay:10.37 W/m2 FEW
01:22 -21.8 °C -22.9 °C 34428.8 hPa SSE 14.8 km/h 35.7 km/h 86% 0 mm WeatherDisplay:10.37 W/m2 FEW
01:27 -21.9 °C -22.9 °C 34428.8 hPa SE 12.9 km/h 29.8 km/h 86% 0 mm WeatherDisplay:10.37 W/m2 FEW
01:32 -21.9 °C -23.1 °C 34428.8 hPa NE 6.8 km/h 7.7 km/h 85% 0 mm WeatherDisplay:10.37 W/m2 FEW
01:43 -21.9 °C -23 °C 34418.7 hPa ESE 2.6 km/h 15.6 km/h 86% 0 mm WeatherDisplay:10.37 W/m2 FEW
01:48 -21.9 °C -23 °C 34418.7 hPa SE 0.5 km/h 15 km/h 86% 0 mm WeatherDisplay:10.37 W/m2 FEW
01:58 -21.9 °C -23.1 °C 34405.1 hPa ENE 12.7 km/h 29.8 km/h 85% 0 mm WeatherDisplay:10.37 W/m2 FEW
02:05 -21.9 °C -23.1 °C 34405.1 hPa West 0.8 km/h 9 km/h 85% 0 mm WeatherDisplay:10.37 W/m2 FEW
02:13 -21.9 °C -23.1 °C 34405.1 hPa ESE 8 km/h 9 km/h 85% 0 mm WeatherDisplay:10.37 W/m2 FEW
02:21 -21.9 °C -23.1 °C 34395 hPa SSE 17.4 km/h 29.8 km/h 85% 0 mm WeatherDisplay:10.37 W/m2 FEW
02:26 -21.9 °C -23.1 °C 34395 hPa SSE 17.9 km/h 35.7 km/h 85% 0 mm WeatherDisplay:10.37 W/m2 FEW
02:38 -21.8 °C -23 °C 34395 hPa SSE 3.1 km/h 15 km/h 85% 0 mm WeatherDisplay:10.37 W/m2 FEW
02:43 -21.8 °C -23 °C 34395 hPa South 3.7 km/h 23.8 km/h 85% 0 mm WeatherDisplay:10.37 W/m2 FEW
02:48 -21.8 °C -22.9 °C 34395 hPa SSE 3.4 km/h 26.9 km/h 86% 0 mm WeatherDisplay:10.37 W/m2 FEW
02:53 -21.8 °C -22.9 °C 34395 hPa SE 0.8 km/h 9 km/h 86% 0 mm WeatherDisplay:10.37 W/m2 FEW
02:58 -21.8 °C -22.9 °C 34395 hPa SSW 6.4 km/h 9 km/h 86% 0 mm WeatherDisplay:10.37 W/m2 FEW
03:03 -21.8 °C -23 °C 34384.8 hPa SE 14.2 km/h 28.5 km/h 85% 0 mm WeatherDisplay:10.37 W/m2 FEW
03:20 -21.9 °C -23.1 °C 34384.8 hPa SE 2.6 km/h 23.8 km/h 85% 0 mm WeatherDisplay:10.37 W/m2 FEW
03:25 -21.9 °C -22.9 °C 34371.3 hPa SSE 3.9 km/h 11.9 km/h 86% 0 mm WeatherDisplay:10.37 W/m2 FEW
03:30 -21.9 °C -23 °C 34371.3 hPa SE 15.8 km/h 23.8 km/h 86% 0 mm WeatherDisplay:10.37 W/m2 FEW
03:35 -21.9 °C -23 °C 34371.3 hPa East 9 km/h 20.9 km/h 86% 0 mm WeatherDisplay:10.37 W/m2 FEW
03:40 -21.9 °C -23 °C 34361.1 hPa SSW 6.3 km/h 17.9 km/h 86% 0 mm WeatherDisplay:10.37 W/m2 FEW
03:45 -21.9 °C -23.1 °C 34361.1 hPa South 6.3 km/h 20.9 km/h 85% 0 mm WeatherDisplay:10.37 W/m2 FEW
03:50 -21.9 °C -23.1 °C 34361.1 hPa SSE 0.5 km/h 9 km/h 85% 0 mm WeatherDisplay:10.37 W/m2 FEW
03:58 -22 °C -23.2 °C 34347.6 hPa South 10.3 km/h 29.8 km/h 85% 0 mm WeatherDisplay:10.37 W/m2 FEW
04:10 -22 °C -23.2 °C 34347.6 hPa SE 11.4 km/h 29.8 km/h 85% 0 mm WeatherDisplay:10.37 W/m2 FEW
04:22 -22.1 °C -23.2 °C 34347.6 hPa SE 9.8 km/h 26.9 km/h 85% 0 mm WeatherDisplay:10.37 W/m2 FEW
04:35 -22.1 °C -23.2 °C 34337.4 hPa ESE 7.6 km/h 9 km/h 86% 0 mm WeatherDisplay:10.37 W/m2 FEW
04:43 -22.1 °C -23.3 °C 34327.3 hPa South 4.7 km/h 29.8 km/h 85% 0 mm WeatherDisplay:10.37 W/m2 FEW
04:53 -22.2 °C -23.3 °C 34327.3 hPa SSE 10.6 km/h 29.8 km/h 85% 0 mm WeatherDisplay:10.37 W/m2 FEW
04:58 -22.2 °C -23.3 °C 34327.3 hPa South 4.2 km/h 20.9 km/h 86% 0 mm WeatherDisplay:10.37 W/m2 FEW
05:03 -22.2 °C -23.3 °C 34313.7 hPa SSE 3.7 km/h 17.9 km/h 86% 0 mm WeatherDisplay:10.37 W/m2 FEW
05:09 -22.2 °C -23.3 °C 34313.7 hPa South 14.8 km/h 29.8 km/h 86% 0 mm WeatherDisplay:10.37 W/m2 FEW
05:18 -22.3 °C -23.3 °C 34313.7 hPa East 15.8 km/h 29.8 km/h 86% 0 mm WeatherDisplay:10.37 W/m2 FEW
05:27 -22.3 °C -23.4 °C 34303.6 hPa SE 1.8 km/h 12.9 km/h 86% 0 mm WeatherDisplay:10.37 W/m2 FEW
05:38 -22.3 °C -23.4 °C 34293.4 hPa South 9.8 km/h 25.9 km/h 86% 0 mm WeatherDisplay:10.37 W/m2 FEW
05:45 -22.3 °C -23.4 °C 34293.4 hPa SSW 1.6 km/h 17.9 km/h 86% 0 mm WeatherDisplay:10.37 W/m2 FEW
05:50 -22.3 °C -23.3 °C 34293.4 hPa SSE 2.1 km/h 9 km/h 87% 0 mm WeatherDisplay:10.37 W/m2 FEW
05:57 -22.3 °C -23.3 °C 34293.4 hPa ENE 11.1 km/h 20.9 km/h 87% 0 mm WeatherDisplay:10.37 W/m2 FEW
06:02 -22.3 °C -23.3 °C 34279.9 hPa ESE 8.2 km/h 10.3 km/h 87% 0 mm WeatherDisplay:10.37 W/m2 FEW
06:11 -22.3 °C -23.3 °C 34279.9 hPa ENE 8 km/h 15 km/h 87% 0 mm WeatherDisplay:10.37 W/m2 FEW
06:16 -22.3 °C -23.3 °C 34279.9 hPa ENE 11.9 km/h 20.9 km/h 87% 0 mm WeatherDisplay:10.37 W/m2 FEW
06:21 -22.4 °C -23.4 °C 34279.9 hPa ESE 12.9 km/h 31.1 km/h 87% 0 mm WeatherDisplay:10.37 W/m2 FEW
06:26 -22.4 °C -23.4 °C 34279.9 hPa SSE 12.9 km/h 23.8 km/h 87% 0 mm WeatherDisplay:10.37 W/m2 FEW
06:31 -22.4 °C -23.4 °C 34279.9 hPa SSE 3.7 km/h 20.9 km/h 87% 0 mm WeatherDisplay:10.37 W/m2 FEW
06:36 -22.4 °C -23.4 °C 34269.7 hPa ESE 6.8 km/h 17.9 km/h 87% 0 mm WeatherDisplay:10.37 W/m2 FEW
06:47 -22.4 °C -23.4 °C 34269.7 hPa Calm     87% 0 mm WeatherDisplay:10.37 W/m2 FEW
07:08 -22.4 °C -23.5 °C 34256.2 hPa SSE 16.3 km/h 26.9 km/h 86% 0 mm WeatherDisplay:10.37 W/m2 FEW
07:13 -22.4 °C -23.5 °C 34256.2 hPa SSE 10.3 km/h 23.8 km/h 86% 0 mm WeatherDisplay:10.37 W/m2 FEW
07:18 -22.4 °C -23.5 °C 34246 hPa SE 19.5 km/h 38.8 km/h 86% 0 mm WeatherDisplay:10.37 W/m2 FEW
07:23 -22.4 °C -23.6 °C 34246 hPa ESE 3.4 km/h 17.9 km/h 85% 0 mm WeatherDisplay:10.37 W/m2 FEW
07:29 -22.4 °C -23.6 °C 34246 hPa SSE 20 km/h 38.8 km/h 85% 0 mm WeatherDisplay:10.37 W/m2 FEW
07:37 -22.4 °C -23.6 °C 34246 hPa Calm     85% 0 mm WeatherDisplay:10.37 W/m2 FEW
07:45 -22.4 °C -23.5 °C 34235.8 hPa SSW 6 km/h 15 km/h 86% 0 mm WeatherDisplay:10.37 W/m2 FEW
07:50 -22.4 °C -23.5 °C 34235.8 hPa South 8.9 km/h 50.7 km/h 86% 0 mm WeatherDisplay:10.37 W/m2 FEW
07:55 -22.4 °C -23.5 °C 34235.8 hPa SSE 10.9 km/h 29.8 km/h 86% 0 mm WeatherDisplay:10.37 W/m2 FEW
08:02 -22.4 °C -23.5 °C 34235.8 hPa SSE 8.9 km/h 20.9 km/h 86% 0 mm WeatherDisplay:10.37 W/m2 FEW
08:07 -22.4 °C -23.5 °C 34235.8 hPa SSE 2.9 km/h 11.9 km/h 86% 0 mm WeatherDisplay:10.37 W/m2 FEW
08:13 -22.4 °C -23.5 °C 34235.8 hPa SSE 9.8 km/h 23.8 km/h 86% 0 mm WeatherDisplay:10.37 W/m2 FEW
08:20 -22.4 °C -23.5 °C 34235.8 hPa South 8 km/h 17.9 km/h 86% 0 mm WeatherDisplay:10.37 W/m2 FEW
08:34 -22.4 °C -23.4 °C 34222.3 hPa ESE 2.9 km/h 20.9 km/h 87% 0 mm WeatherDisplay:10.37 W/m2 FEW
08:43 -22.3 °C -23.3 °C 34212.1 hPa ENE 11.1 km/h 17.9 km/h 87% 0 mm WeatherDisplay:10.37 W/m2 FEW
08:50 -22.3 °C -23.3 °C 34212.1 hPa South 12.7 km/h 26.9 km/h 87% 0 mm WeatherDisplay:10.37 W/m2 FEW
08:56 -22.3 °C -23.3 °C 34222.3 hPa East 1.3 km/h 10.3 km/h 87% 0 mm WeatherDisplay:10.37 W/m2 FEW
09:01 -22.3 °C -23.2 °C 34212.1 hPa SSE 3.4 km/h 7.7 km/h 87% 0 mm WeatherDisplay:10.37 W/m2 FEW
09:08 -22.2 °C -23.2 °C 34212.1 hPa ESE 8 km/h 23.8 km/h 87% 0 mm WeatherDisplay:10.37 W/m2 FEW
09:21 -22.1 °C -22.9 °C 34198.6 hPa SE 11.4 km/h 32.8 km/h 88% 0 mm WeatherDisplay:10.37 W/m2 FEW
09:33 -21.9 °C -22.9 °C 34198.6 hPa SSE 9 km/h 29.8 km/h 88% 0 mm WeatherDisplay:10.37 W/m2 FEW
09:40 -21.9 °C -22.8 °C 34198.6 hPa SE 5.1 km/h 11.9 km/h 88% 0 mm WeatherDisplay:10.37 W/m2 FEW
09:47 -21.8 °C -22.8 °C 34198.6 hPa SE 8 km/h 23.3 km/h 88% 0 mm WeatherDisplay:10.37 W/m2 FEW
09:52 -21.8 °C -22.7 °C 34198.6 hPa SSE 13.5 km/h 32.8 km/h 88% 0 mm WeatherDisplay:10.37 W/m2 FEW
10:02 -21.8 °C -22.6 °C 34198.6 hPa South 8 km/h 23.8 km/h 89% 0 mm WeatherDisplay:10.37 W/m2 FEW
10:07 -21.7 °C -22.7 °C 34198.6 hPa SSE 13.2 km/h 23.8 km/h 88% 0 mm WeatherDisplay:10.37 W/m2 FEW
10:12 -21.7 °C -22.7 °C 34198.6 hPa ESE 9 km/h 26.9 km/h 88% 0 mm WeatherDisplay:10.37 W/m2 FEW
10:17 -21.8 °C -22.7 °C 34198.6 hPa SE 7.7 km/h 25.9 km/h 88% 0 mm WeatherDisplay:10.37 W/m2 FEW
10:30 -21.8 °C -22.8 °C 34198.6 hPa SE 11.6 km/h 29.8 km/h 87% 0 mm WeatherDisplay:10.37 W/m2 FEW
10:35 -21.8 °C -22.8 °C 34198.6 hPa WNW 11.1 km/h 29.8 km/h 87% 0 mm WeatherDisplay:10.37 W/m2 FEW
10:51 -21.9 °C -22.9 °C 34188.4 hPa SSE 8.5 km/h 17.9 km/h 87% 0 mm WeatherDisplay:10.37 W/m2 FEW
11:04 -21.9 °C -22.9 °C 34188.4 hPa SSW 0.8 km/h 11.9 km/h 87% 0 mm WeatherDisplay:10.37 W/m2 FEW
11:19 -21.8 °C -22.8 °C 34188.4 hPa South 8 km/h 10.3 km/h 87% 0 mm WeatherDisplay:10.37 W/m2 FEW
11:24 -21.8 °C -22.7 °C 34188.4 hPa ESE 8.2 km/h 23.8 km/h 88% 0 mm WeatherDisplay:10.37 W/m2 FEW
11:37 -21.8 °C -22.8 °C 34178.3 hPa SSE 8.2 km/h 20.9 km/h 87% 0 mm WeatherDisplay:10.37 W/m2 FEW
11:42 -21.8 °C -22.8 °C 34178.3 hPa SSW 13.5 km/h 15 km/h 87% 0 mm WeatherDisplay:10.37 W/m2 FEW
11:52 -21.8 °C -22.9 °C 34164.7 hPa ESE 19.6 km/h 35.7 km/h 86% 0 mm WeatherDisplay:10.37 W/m2 FEW
12:01 -21.8 °C -23.1 °C 34164.7 hPa SE 15.8 km/h 23.8 km/h 84% 0 mm WeatherDisplay:10.37 W/m2 FEW
12:06 -21.8 °C -23.2 °C 34164.7 hPa SSE 13.5 km/h 23.8 km/h 83% 0 mm WeatherDisplay:10.37 W/m2 FEW
12:11 -21.8 °C -23.2 °C 34154.6 hPa West 17.4 km/h 26.9 km/h 83% 0 mm WeatherDisplay:10.37 W/m2 FEW
12:16 -21.8 °C -23.2 °C 34154.6 hPa SE 10.3 km/h 29.8 km/h 82% 0 mm WeatherDisplay:10.37 W/m2 FEW
12:21 -21.8 °C -23.2 °C 34154.6 hPa South 24.6 km/h 29.8 km/h 82% 0 mm WeatherDisplay:10.37 W/m2 FEW
12:30 -21.7 °C -23.2 °C 34144.4 hPa East 21.7 km/h 38.8 km/h 81% 0 mm WeatherDisplay:10.37 W/m2 FEW
12:43 -21.6 °C -23.1 °C 34144.4 hPa SSE 15.6 km/h 29.8 km/h 81% 0 mm WeatherDisplay:10.37 W/m2 FEW
12:48 -21.6 °C -23.1 °C 34130.9 hPa ESE 9.7 km/h 15 km/h 81% 0 mm WeatherDisplay:10.37 W/m2 FEW
12:53 -21.5 °C -23 °C 34130.9 hPa West 10.9 km/h 50.7 km/h 81% 0 mm WeatherDisplay:10.37 W/m2 FEW
12:58 -21.5 °C -23 °C 34120.7 hPa South 15.8 km/h 29.8 km/h 81% 0 mm WeatherDisplay:10.37 W/m2 FEW
13:07 -21.4 °C -23 °C 34120.7 hPa SE 17.4 km/h 33.6 km/h 80% 0 mm WeatherDisplay:10.37 W/m2 FEW
13:15 -21.3 °C -22.9 °C 34107.2 hPa SE 15.3 km/h 26.9 km/h 80% 0 mm WeatherDisplay:10.37 W/m2 FEW
13:20 -21.3 °C -22.9 °C 34107.2 hPa ESE 15.6 km/h 47.6 km/h 80% 0 mm WeatherDisplay:10.37 W/m2 FEW
13:25 -21.3 °C -22.9 °C 34107.2 hPa SE 8.2 km/h 28.5 km/h 80% 0 mm WeatherDisplay:10.37 W/m2 FEW
13:32 -21.2 °C -22.8 °C 34097 hPa SE 16.3 km/h 38.8 km/h 80% 0 mm WeatherDisplay:10.37 W/m2 FEW
13:37 -21.2 °C -22.8 °C 34097 hPa SSE 8.5 km/h 17.9 km/h 80% 0 mm WeatherDisplay:10.37 W/m2 FEW
13:47 -21.1 °C -22.8 °C 34097 hPa SE 17.4 km/h 35.7 km/h 79% 0 mm WeatherDisplay:10.37 W/m2 FEW
14:00 -21 °C -22.9 °C 34086.9 hPa SE 15.3 km/h 32.8 km/h 77% 0 mm WeatherDisplay:10.37 W/m2 FEW
14:10 -20.9 °C -22.8 °C 34086.9 hPa SE 18.3 km/h 38.8 km/h 77% 0 mm WeatherDisplay:10.37 W/m2 FEW
14:15 -20.9 °C -22.8 °C 34086.9 hPa ESE 20.4 km/h 32.8 km/h 77% 0 mm WeatherDisplay:10.37 W/m2 FEW
14:21 -20.9 °C -22.8 °C 34086.9 hPa SSE 18.8 km/h 35.7 km/h 77% 0 mm WeatherDisplay:10.37 W/m2 FEW
14:28 -20.9 °C -22.8 °C 34086.9 hPa SE 20.3 km/h 35.7 km/h 77% 0 mm WeatherDisplay:10.37 W/m2 FEW
14:34 -20.9 °C -22.8 °C 34073.3 hPa ESE 15.6 km/h 29.8 km/h 77% 0 mm WeatherDisplay:10.37 W/m2 FEW
14:39 -20.9 °C -22.9 °C 34073.3 hPa South 20.3 km/h 44.7 km/h 76% 0 mm WeatherDisplay:10.37 W/m2 FEW
14:46 -20.8 °C -22.8 °C 34073.3 hPa SE 23.3 km/h 51.8 km/h 76% 0 mm WeatherDisplay:10.37 W/m2 FEW
14:51 -20.8 °C -22.8 °C 34063.2 hPa SE 10.9 km/h 25.9 km/h 76% 0 mm WeatherDisplay:10.37 W/m2 FEW
14:57 -20.9 °C -22.8 °C 34073.3 hPa ENE 18.2 km/h 36.2 km/h 76% 0 mm WeatherDisplay:10.37 W/m2 FEW
15:03 -20.8 °C -22.9 °C 34063.2 hPa South 12.9 km/h 25.9 km/h 75% 0 mm WeatherDisplay:10.37 W/m2 FEW
15:08 -20.8 °C -22.9 °C 34063.2 hPa ESE 11.6 km/h 23.8 km/h 75% 0 mm WeatherDisplay:10.37 W/m2 FEW
15:13 -20.8 °C -22.9 °C 34063.2 hPa East 13.7 km/h 23.8 km/h 75% 0 mm WeatherDisplay:10.37 W/m2 FEW
15:18 -20.8 °C -22.9 °C 34063.2 hPa East 11.9 km/h 17.9 km/h 75% 0 mm WeatherDisplay:10.37 W/m2 FEW
15:23 -20.8 °C -22.9 °C 34049.6 hPa East 11.6 km/h 17.9 km/h 75% 0 mm WeatherDisplay:10.37 W/m2 FEW
15:35 -20.8 °C -22.9 °C 34049.6 hPa ESE 11.1 km/h 59.5 km/h 75% 0 mm WeatherDisplay:10.37 W/m2 FEW
15:42 -20.8 °C -22.8 °C 34049.6 hPa SE 9.3 km/h 17.9 km/h 76% 0 mm WeatherDisplay:10.37 W/m2 FEW
15:51 -20.9 °C -22.9 °C 34039.5 hPa SE 12.4 km/h 29.8 km/h 76% 0 mm WeatherDisplay:10.37 W/m2 FEW
15:56 -20.9 °C -22.9 °C 34039.5 hPa SE 21.6 km/h 31.1 km/h 76% 0 mm WeatherDisplay:10.37 W/m2 FEW
16:01 -20.9 °C -22.9 °C 34039.5 hPa ESE 16.1 km/h 29.8 km/h 76% 0 mm WeatherDisplay:10.37 W/m2 FEW
16:08 -20.9 °C -22.9 °C 34039.5 hPa SSW 6.9 km/h 9 km/h 76% 0 mm WeatherDisplay:10.37 W/m2 FEW
16:13 -20.9 °C -22.8 °C 34039.5 hPa SE 8.2 km/h 23.8 km/h 77% 0 mm WeatherDisplay:10.37 W/m2 FEW
16:23 -20.9 °C -22.8 °C 34039.5 hPa South 14.2 km/h 29.8 km/h 77% 0 mm WeatherDisplay:10.37 W/m2 FEW
16:28 -20.9 °C -22.8 °C 34029.3 hPa ESE 11.4 km/h 38.8 km/h 77% 0 mm WeatherDisplay:10.37 W/m2 FEW
16:34 -20.9 °C -22.8 °C 34039.5 hPa SSE 10.9 km/h 23.8 km/h 77% 0 mm WeatherDisplay:10.37 W/m2 FEW
16:43 -20.9 °C -22.8 °C 34039.5 hPa SSE 11.9 km/h 23.8 km/h 77% 0 mm WeatherDisplay:10.37 W/m2 FEW
16:50 -20.9 °C -22.8 °C 34029.3 hPa SE 16.9 km/h 29.8 km/h 77% 0 mm WeatherDisplay:10.37 W/m2 FEW
16:55 -20.9 °C -22.8 °C 34039.5 hPa East 10.9 km/h 29.8 km/h 77% 0 mm WeatherDisplay:10.37 W/m2 FEW
17:00 -20.9 °C -22.8 °C 34029.3 hPa SE 24.1 km/h 41.7 km/h 76% 0 mm WeatherDisplay:10.37 W/m2 FEW
17:05 -20.9 °C -22.8 °C 34029.3 hPa South 10.3 km/h 10.3 km/h 76% 0 mm WeatherDisplay:10.37 W/m2 FEW
17:10 -20.9 °C -22.9 °C 34029.3 hPa ESE 7.7 km/h 23.8 km/h 76% 0 mm WeatherDisplay:10.37 W/m2 FEW
17:15 -20.9 °C -22.9 °C 34029.3 hPa SSE 16.6 km/h 23.8 km/h 76% 0 mm WeatherDisplay:10.37 W/m2 FEW
17:20 -20.9 °C -22.9 °C 34039.5 hPa South 20.3 km/h 32.8 km/h 76% 0 mm WeatherDisplay:10.37 W/m2 FEW
17:25 -20.9 °C -22.9 °C 34029.3 hPa SE 9 km/h 11.9 km/h 76% 0 mm WeatherDisplay:10.37 W/m2 FEW
17:34 -20.9 °C -22.9 °C 34029.3 hPa SE 22 km/h 36.2 km/h 76% 0 mm WeatherDisplay:10.37 W/m2 FEW
17:39 -20.9 °C -22.9 °C 34029.3 hPa ESE 10.1 km/h 26.9 km/h 75% 0 mm WeatherDisplay:10.37 W/m2 FEW
17:45 -20.9 °C -22.9 °C 34015.8 hPa ENE 12.2 km/h 50.7 km/h 75% 0 mm WeatherDisplay:10.37 W/m2 FEW
17:50 -20.9 °C -22.9 °C 34029.3 hPa SE 24.8 km/h 26.9 km/h 75% 0 mm WeatherDisplay:10.37 W/m2 FEW
17:55 -20.8 °C -22.9 °C 34015.8 hPa SE 16.1 km/h 29.8 km/h 75% 0 mm WeatherDisplay:10.37 W/m2 FEW
18:01 -20.8 °C -22.9 °C 34015.8 hPa ENE 15.6 km/h 35.7 km/h 75% 0 mm WeatherDisplay:10.37 W/m2 FEW
18:06 -20.9 °C -22.9 °C 34015.8 hPa ESE 0.8 km/h 17.9 km/h 75% 0 mm WeatherDisplay:10.37 W/m2 FEW
18:17 -20.8 °C -23 °C 34015.8 hPa NE 28.2 km/h 47.6 km/h 74% 0 mm WeatherDisplay:10.37 W/m2 FEW
18:24 -20.8 °C -22.9 °C 34005.6 hPa ENE 14.8 km/h 29.8 km/h 74% 0 mm WeatherDisplay:10.37 W/m2 FEW
18:29 -20.8 °C -22.9 °C 34015.8 hPa ESE 14.2 km/h 44.7 km/h 74% 0 mm WeatherDisplay:10.37 W/m2 FEW
18:36 -20.8 °C -22.9 °C 34005.6 hPa East 9.7 km/h 31.1 km/h 75% 0 mm WeatherDisplay:10.37 W/m2 FEW
18:52 -20.8 °C -22.9 °C 34005.6 hPa SE 11.9 km/h 32.8 km/h 74% 0 mm WeatherDisplay:10.37 W/m2 FEW
19:03 -20.8 °C -22.9 °C 34005.6 hPa ESE 14.8 km/h 26.9 km/h 75% 0 mm WeatherDisplay:10.37 W/m2 FEW
19:10 -20.8 °C -22.9 °C 34005.6 hPa South 11.9 km/h 35.7 km/h 75% 0 mm WeatherDisplay:10.37 W/m2 FEW
19:18 -20.8 °C -22.9 °C 33992.1 hPa WSW 9.7 km/h 23.8 km/h 75% 0 mm WeatherDisplay:10.37 W/m2 FEW
19:28 -20.8 °C -22.9 °C 33992.1 hPa SE 15.6 km/h 38.8 km/h 75% 0 mm WeatherDisplay:10.37 W/m2 FEW
19:33 -20.8 °C -22.9 °C 33992.1 hPa East 25.1 km/h 44.7 km/h 75% 0 mm WeatherDisplay:10.37 W/m2 FEW
19:40 -20.8 °C -22.9 °C 33992.1 hPa South 14.5 km/h 26.9 km/h 74% 0 mm WeatherDisplay:10.37 W/m2 FEW
19:45 -20.8 °C -22.9 °C 33992.1 hPa ESE 10.9 km/h 20.9 km/h 74% 0 mm WeatherDisplay:10.37 W/m2 FEW
19:57 -20.8 °C -22.9 °C 33992.1 hPa SE 22 km/h 35.7 km/h 74% 0 mm WeatherDisplay:10.37 W/m2 FEW
20:03 -20.8 °C -22.9 °C 33992.1 hPa South 14.5 km/h 29.8 km/h 74% 0 mm WeatherDisplay:10.37 W/m2 FEW
20:08 -20.8 °C -22.9 °C 33992.1 hPa ESE 18.7 km/h 23.3 km/h 74% 0 mm WeatherDisplay:10.37 W/m2 FEW
20:17 -20.8 °C -22.9 °C 33992.1 hPa SSE 9.8 km/h 15 km/h 74% 0 mm WeatherDisplay:10.37 W/m2 FEW
20:22 -20.8 °C -22.9 °C 33992.1 hPa ENE 13.2 km/h 32.8 km/h 74% 0 mm WeatherDisplay:10.37 W/m2 FEW
20:28 -20.8 °C -22.9 °C 33992.1 hPa ESE 9 km/h 29.8 km/h 74% 0 mm WeatherDisplay:10.37 W/m2 FEW
20:34 -20.8 °C -22.9 °C 33992.1 hPa East 15 km/h 23.8 km/h 74% 0 mm WeatherDisplay:10.37 W/m2 FEW
20:44 -20.8 °C -22.9 °C 33981.9 hPa East 8.2 km/h 17.9 km/h 74% 0 mm WeatherDisplay:10.37 W/m2 FEW
20:50 -20.8 °C -22.9 °C 33992.1 hPa East 7.7 km/h 23.8 km/h 74% 0 mm WeatherDisplay:10.37 W/m2 FEW
20:55 -20.8 °C -22.9 °C 33992.1 hPa ESE 13.7 km/h 29.8 km/h 74% 0 mm WeatherDisplay:10.37 W/m2 FEW
21:03 -20.8 °C -22.9 °C 33981.9 hPa South 12.2 km/h 41.7 km/h 74% 0 mm WeatherDisplay:10.37 W/m2 FEW
21:08 -20.8 °C -22.9 °C 33981.9 hPa South 8 km/h 23.8 km/h 74% 0 mm WeatherDisplay:10.37 W/m2 FEW
21:13 -20.8 °C -23 °C 33981.9 hPa SW 11.6 km/h 29.8 km/h 73% 0 mm WeatherDisplay:10.37 W/m2 FEW
21:21 -20.8 °C -23 °C 33981.9 hPa NE 6.9 km/h 23.8 km/h 73% 0 mm WeatherDisplay:10.37 W/m2 FEW
21:26 -20.8 °C -23 °C 33981.9 hPa SE 9 km/h 15 km/h 73% 0 mm WeatherDisplay:10.37 W/m2 FEW
21:34 -20.8 °C -23 °C 33981.9 hPa East 25.9 km/h 38.8 km/h 73% 0 mm WeatherDisplay:10.37 W/m2 FEW
21:44 -20.7 °C -23.1 °C 33971.7 hPa SE 19.6 km/h 32.8 km/h 72% 0 mm WeatherDisplay:10.37 W/m2 FEW
21:49 -20.7 °C -23.1 °C 33971.7 hPa SE 14.2 km/h 26.9 km/h 72% 0 mm WeatherDisplay:10.37 W/m2 FEW
21:56 -20.7 °C -23.1 °C 33971.7 hPa South 12.2 km/h 17.9 km/h 72% 0 mm WeatherDisplay:10.37 W/m2 FEW
22:05 -20.7 °C -23.1 °C 33971.7 hPa SSE 15.8 km/h 38.8 km/h 72% 0 mm WeatherDisplay:10.37 W/m2 FEW
22:10 -20.7 °C -23.1 °C 33971.7 hPa SSW 10.3 km/h 20.9 km/h 72% 0 mm WeatherDisplay:10.37 W/m2 FEW
22:18 -20.7 °C -23.1 °C 33971.7 hPa ESE 13.5 km/h 35.7 km/h 72% 0 mm WeatherDisplay:10.37 W/m2 FEW
22:29 -20.7 °C -23 °C 33958.2 hPa East 16.6 km/h 29.8 km/h 73% 0 mm WeatherDisplay:10.37 W/m2 FEW
22:36 -20.7 °C -22.9 °C 33958.2 hPa SE 11.1 km/h 29.8 km/h 74% 0 mm WeatherDisplay:10.37 W/m2 FEW
22:41 -20.7 °C -22.9 °C 33958.2 hPa ENE 12.7 km/h 29.8 km/h 74% 0 mm WeatherDisplay:10.37 W/m2 FEW
22:46 -20.7 °C -22.9 °C 33958.2 hPa ESE 8.9 km/h 17.9 km/h 74% 0 mm WeatherDisplay:10.37 W/m2 FEW
22:51 -20.8 °C -22.9 °C 33958.2 hPa ENE 17.4 km/h 29.8 km/h 74% 0 mm WeatherDisplay:10.37 W/m2 FEW
23:05 -20.8 °C -23 °C 33958.2 hPa SE 12.2 km/h 20.9 km/h 73% 0 mm WeatherDisplay:10.37 W/m2 FEW
23:17 -20.8 °C -23 °C 33958.2 hPa ENE 9.7 km/h 32.8 km/h 74% 0 mm WeatherDisplay:10.37 W/m2 FEW
23:18 -20.8 °C -23 °C 33958.2 hPa SE 16.9 km/h 29.8 km/h 74% 0 mm WeatherDisplay:10.37 W/m2 FEW
23:24 -20.9 °C -23 °C 33958.2 hPa ESE 14.5 km/h 23.8 km/h 74% 0 mm WeatherDisplay:10.37 W/m2 FEW
23:29 -20.9 °C -23.1 °C 33948 hPa NE 15.6 km/h 23.8 km/h 74% 0 mm WeatherDisplay:10.37 W/m2 FEW
23:36 -20.9 °C -23.1 °C 33948 hPa East 22 km/h 44.7 km/h 74% 0 mm WeatherDisplay:10.37 W/m2 FEW
23:43 -21 °C -23.2 °C 33948 hPa South 15.6 km/h 29.8 km/h 74% 0 mm WeatherDisplay:10.37 W/m2 FEW
23:48 -21 °C -23.2 °C 33948 hPa NE 14.8 km/h 29.8 km/h 74% 0 mm WeatherDisplay:10.37 W/m2 FEW
23:53 -21 °C -23.2 °C 33948 hPa ENE 16.9 km/h 26.9 km/h 74% 0 mm WeatherDisplay:10.37 W/m2 FEW
23:59 -21.1 °C -23.3 °C 33937.9 hPa ESE 20.8 km/h 29.8 km/h 73% 0 mm WeatherDisplay:10.37 W/m2 FEW
Tuulensuunkaari, Veikkola, Suomi
Compliments of Weather Underground - 2.25 mb